Time;durP1;ratioP1;P1;durP2;ratioP2;P2;SDS_P1;SDS_P2;PMS_P1;PMS_P2;Temp;Humidity;BMP_temperature;BMP_pressure;BME280_temperature;BME280_humidity;BME280_pressure;Samples;Min_cycle;Max_cycle;Signal;HPM_P1;HPM_P2
2020/12/30 00:00:16;;;;;;;40.45;21.48;;;;;;;5.58;59.87;99563.91;4932794;28;124122;-67
2020/12/30 00:02:43;;;;;;;35.42;20.88;;;;;;;5.56;60.34;99560.50;4949510;28;124102;-67
2020/12/30 00:05:11;;;;;;;36.90;21.42;;;;;;;5.54;60.22;99562.34;4951620;28;109183;-66
2020/12/30 00:07:39;;;;;;;40.28;22.30;;;;;;;5.55;60.27;99564.03;4952153;28;110313;-67
2020/12/30 00:10:08;;;;;;;42.60;22.58;;;;;;;5.51;60.44;99557.22;4943759;28;123801;-67
2020/12/30 00:12:36;;;;;;;37.30;21.25;;;;;;;5.51;60.31;99554.59;4930587;28;122804;-67
2020/12/30 00:15:04;;;;;;;41.83;21.88;;;;;;;5.50;60.39;99560.78;4948221;28;109672;-67
2020/12/30 00:17:31;;;;;;;39.50;21.73;;;;;;;5.48;60.36;99557.34;4934676;28;110575;-67
2020/12/30 00:19:57;;;;;;;37.92;22.60;;;;;;;5.50;60.46;99559.91;4954036;28;124200;-67
2020/12/30 00:22:24;;;;;;;39.78;22.52;;;;;;;5.49;60.32;99559.06;4954384;28;123736;-67
2020/12/30 00:24:50;;;;;;;41.70;22.63;;;;;;;5.48;60.41;99562.59;4951232;28;109126;-67
2020/12/30 00:27:17;;;;;;;38.95;21.40;;;;;;;5.46;60.45;99559.19;4949449;28;109990;-67
2020/12/30 00:29:43;;;;;;;39.65;22.17;;;;;;;5.47;60.64;99560.91;4948847;28;124247;-67
2020/12/30 00:32:11;;;;;;;43.33;23.08;;;;;;;5.46;60.50;99559.19;4948708;28;123752;-67
2020/12/30 00:34:40;;;;;;;41.03;22.38;;;;;;;5.46;60.78;99564.44;4949303;28;111052;-67
2020/12/30 00:37:07;;;;;;;39.90;22.95;;;;;;;5.45;60.61;99557.50;4918506;28;109372;-67
2020/12/30 00:39:33;;;;;;;41.40;22.80;;;;;;;5.45;60.53;99568.00;4951072;28;124071;-66
2020/12/30 00:42:00;;;;;;;37.15;22.42;;;;;;;5.45;60.66;99558.34;4934205;28;123714;-67
2020/12/30 00:44:26;;;;;;;41.83;22.75;;;;;;;5.45;60.57;99562.75;4953403;28;109063;-67
2020/12/30 00:46:57;;;;;;;45.97;23.98;;;;;;;5.44;60.68;99563.66;4952134;28;109697;-67
2020/12/30 00:49:25;;;;;;;41.63;23.25;;;;;;;5.43;60.77;99564.59;4931966;28;123035;-67
2020/12/30 00:51:57;;;;;;;41.83;22.88;;;;;;;5.44;60.89;99571.53;4928381;28;123292;-67
2020/12/30 00:54:29;;;;;;;41.10;22.40;;;;;;;5.44;60.83;99571.53;4933933;28;108161;-67
2020/12/30 00:56:56;;;;;;;42.63;22.15;;;;;;;5.45;60.90;99578.50;4953951;28;110245;-67
2020/12/30 00:59:27;;;;;;;44.83;23.35;;;;;;;5.45;61.03;99589.00;4929690;28;123246;-67
2020/12/30 01:01:55;;;;;;;43.08;22.80;;;;;;;5.43;60.94;99588.22;4958972;28;122918;-67
2020/12/30 01:04:34;;;;;;;40.00;22.33;;;;;;;5.44;61.00;99592.53;4944744;28;111100;-67
2020/12/30 01:07:01;;;;;;;36.20;22.70;;;;;;;5.44;60.81;99592.53;4971647;28;109765;-67
2020/12/30 01:09:27;;;;;;;38.50;21.45;;;;;;;5.44;60.80;99603.03;4952858;28;123563;-67
2020/12/30 01:12:01;;;;;;;42.90;23.30;;;;;;;5.43;60.96;99601.34;4971985;28;124915;-66
2020/12/30 01:14:28;;;;;;;40.42;21.67;;;;;;;5.43;60.71;99602.19;4961517;28;109093;-66
2020/12/30 01:16:56;;;;;;;40.28;22.33;;;;;;;5.42;60.82;99605.72;4940265;28;109731;-67
2020/12/30 01:19:23;;;;;;;41.92;23.23;;;;;;;5.43;60.71;99606.59;4952382;28;123483;-67
2020/12/30 01:21:50;;;;;;;40.53;22.90;;;;;;;5.40;60.73;99601.47;4938253;28;123209;-67
2020/12/30 01:24:17;;;;;;;40.28;22.42;;;;;;;5.38;60.86;99603.31;4959961;28;108994;-67
2020/12/30 01:26:46;;;;;;;43.47;22.20;;;;;;;5.39;60.80;99610.28;4957329;28;110176;-66
2020/12/30 01:29:12;;;;;;;41.83;22.67;;;;;;;5.38;60.81;99611.19;4949273;28;124002;-67
2020/12/30 01:31:40;;;;;;;42.05;22.17;;;;;;;5.38;60.89;99613.81;4933816;28;122754;-67
2020/12/30 01:34:07;;;;;;;39.58;22.48;;;;;;;5.38;60.89;99619.06;4947194;28;109128;-67
2020/12/30 01:36:36;;;;;;;47.17;22.10;;;;;;;5.37;60.84;99617.34;4958201;28;109953;-67
2020/12/30 01:39:04;;;;;;;35.63;21.67;;;;;;;5.35;60.50;99620.06;4955529;28;124155;-67
2020/12/30 01:41:31;;;;;;;38.13;22.38;;;;;;;5.35;60.85;99619.19;4937080;28;124783;-67
2020/12/30 01:44:08;;;;;;;43.80;23.25;;;;;;;5.34;60.60;99622.75;4948647;28;108946;-66
2020/12/30 01:46:43;;;;;;;41.50;22.83;;;;;;;5.33;60.71;99626.28;4953540;28;109953;-67
2020/12/30 01:49:12;;;;;;;43.63;22.77;;;;;;;5.31;60.72;99625.50;4950363;28;124375;-67
2020/12/30 01:51:41;;;;;;;48.58;23.45;;;;;;;5.29;60.70;99619.47;4954666;28;124079;-66
2020/12/30 01:54:11;;;;;;;45.50;22.80;;;;;;;5.30;60.85;99621.19;4930098;28;110605;-67
2020/12/30 01:56:38;;;;;;;37.83;22.20;;;;;;;5.30;60.83;99621.19;4931067;28;109644;-67
2020/12/30 01:59:07;;;;;;;44.70;22.77;;;;;;;5.30;60.93;99631.69;4954561;28;124576;-66
2020/12/30 02:01:37;;;;;;;40.05;22.23;;;;;;;5.29;61.13;99625.56;4954013;28;124068;-67
2020/12/30 02:04:05;;;;;;;43.47;23.10;;;;;;;5.29;61.11;99624.72;4963240;28;109480;-67
2020/12/30 02:06:34;;;;;;;39.42;22.65;;;;;;;5.31;60.99;99633.38;4934774;28;110633;-67
2020/12/30 02:09:04;;;;;;;39.70;21.92;;;;;;;5.31;61.14;99633.38;4953129;28;123989;-67
2020/12/30 02:11:32;;;;;;;38.75;21.75;;;;;;;5.32;61.12;99635.09;4947069;28;124230;-67
2020/12/30 02:14:12;;;;;;;43.97;21.52;;;;;;;5.33;61.09;99631.53;4952520;28;109001;-67
2020/12/30 02:16:51;;;;;;;38.42;21.48;;;;;;;5.33;61.32;99636.78;4935310;28;109071;-67
2020/12/30 02:19:18;;;;;;;40.65;21.90;;;;;;;5.35;61.38;99640.19;4949106;28;123736;-67
2020/12/30 02:21:45;;;;;;;45.63;23.50;;;;;;;5.37;61.39;99643.59;4951947;28;123209;-66
2020/12/30 02:24:17;;;;;;;42.78;22.30;;;;;;;5.38;61.35;99634.81;4950801;28;109039;-67
2020/12/30 02:26:44;;;;;;;42.67;22.58;;;;;;;5.42;61.52;99631.13;4944272;28;109997;-67
2020/12/30 02:29:10;;;;;;;45.45;23.63;;;;;;;5.45;61.37;99646.78;4942375;28;123994;-67
2020/12/30 02:31:37;;;;;;;39.67;23.17;;;;;;;5.49;61.61;99643.09;4951353;28;123673;-67
2020/12/30 02:34:04;;;;;;;44.33;23.30;;;;;;;5.52;61.53;99642.97;4950026;28;108824;-66
2020/12/30 02:36:31;;;;;;;47.03;22.90;;;;;;;5.56;61.73;99644.53;4952630;28;110219;-67
2020/12/30 02:38:57;;;;;;;41.35;21.73;;;;;;;5.58;61.92;99642.69;4944168;28;122851;-67
2020/12/30 02:41:24;;;;;;;40.20;23.20;;;;;;;5.61;61.69;99642.56;4953061;28;124172;-67
2020/12/30 02:43:50;;;;;;;40.97;22.20;;;;;;;5.65;61.81;99644.13;4952691;28;110795;-67
2020/12/30 02:46:17;;;;;;;40.85;22.27;;;;;;;5.70;61.87;99656.19;4935890;28;109297;-67
2020/12/30 02:48:43;;;;;;;39.58;23.15;;;;;;;5.75;61.83;99654.25;4954857;28;124091;-67
2020/12/30 02:51:10;;;;;;;44.05;23.40;;;;;;;5.79;61.92;99650.53;4916016;28;123398;-67
2020/12/30 02:53:36;;;;;;;39.05;23.05;;;;;;;5.84;61.91;99653.81;4948617;28;108966;-65
2020/12/30 02:56:03;;;;;;;43.15;23.00;;;;;;;5.88;61.90;99660.66;4972157;22;110021;-75
2020/12/30 02:58:30;;;;;;;39.95;22.33;;;;;;;5.90;61.98;99653.53;4934499;28;122008;-75
2020/12/30 03:00:56;;;;;;;38.45;21.33;;;;;;;5.92;61.95;99656.94;4954270;28;124352;-74
2020/12/30 03:03:24;;;;;;;43.50;22.13;;;;;;;5.95;62.08;99661.22;4956915;28;109730;-75
2020/12/30 03:05:53;;;;;;;42.05;21.55;;;;;;;5.97;62.07;99660.28;4953140;28;110522;-74
2020/12/30 03:08:19;;;;;;;37.78;21.38;;;;;;;6.00;62.11;99654.84;4953924;28;124632;-74
2020/12/30 03:10:46;;;;;;;37.10;21.58;;;;;;;6.04;61.95;99655.56;4955463;28;124033;-75
2020/12/30 03:13:12;;;;;;;40.75;21.83;;;;;;;6.08;62.03;99658.91;4955191;28;109136;-75
2020/12/30 03:15:39;;;;;;;34.13;20.83;;;;;;;6.11;62.18;99661.41;4946939;28;109829;-75
2020/12/30 03:18:05;;;;;;;38.70;21.60;;;;;;;6.14;61.90;99656.00;4940371;28;123848;-74
2020/12/30 03:20:33;;;;;;;39.33;22.00;;;;;;;6.18;62.16;99668.09;4952231;28;124119;-75
2020/12/30 03:22:59;;;;;;;39.88;22.25;;;;;;;6.20;62.02;99666.25;4903816;28;109405;-75
2020/12/30 03:25:26;;;;;;;36.88;21.30;;;;;;;6.23;62.13;99663.47;4945089;28;109817;-75
2020/12/30 03:27:52;;;;;;;38.45;21.17;;;;;;;6.28;61.99;99668.53;4941091;28;124186;-74
2020/12/30 03:30:19;;;;;;;37.97;21.13;;;;;;;6.30;62.13;99672.78;4935470;28;123161;-75
2020/12/30 03:32:46;;;;;;;38.78;21.02;;;;;;;6.32;62.04;99660.41;4946526;28;109778;-74
2020/12/30 03:35:12;;;;;;;37.92;21.65;;;;;;;6.34;61.93;99662.97;4951335;28;110488;-75
2020/12/30 03:37:39;;;;;;;37.55;21.88;;;;;;;6.37;62.13;99661.06;4947322;28;123813;-75
2020/12/30 03:40:05;;;;;;;33.65;20.58;;;;;;;6.39;61.86;99661.84;4941381;28;123711;-75
2020/12/30 03:42:32;;;;;;;36.15;19.70;;;;;;;6.42;61.85;99666.09;4953350;28;109458;-75
2020/12/30 03:44:58;;;;;;;35.13;21.10;;;;;;;6.46;61.97;99669.44;4932025;28;108972;-74
2020/12/30 03:47:28;;;;;;;35.38;20.05;;;;;;;6.48;62.11;99670.22;4938166;28;124321;-74
2020/12/30 03:49:55;;;;;;;36.53;19.90;;;;;;;6.52;62.15;99666.53;4938094;28;123168;-74
2020/12/30 03:52:22;;;;;;;34.72;20.35;;;;;;;6.54;62.08;99669.94;4948995;28;110012;-75
2020/12/30 03:54:49;;;;;;;33.95;20.00;;;;;;;6.55;61.87;99676.88;4929032;28;109297;-74
2020/12/30 03:57:15;;;;;;;33.90;20.15;;;;;;;6.57;61.85;99672.41;4950726;28;123103;-75
2020/12/30 03:59:42;;;;;;;41.45;21.75;;;;;;;6.58;62.17;99677.59;4951974;28;123960;-74
2020/12/30 04:02:08;;;;;;;35.83;20.42;;;;;;;6.60;61.85;99680.16;4935632;28;109072;-74
2020/12/30 04:04:36;;;;;;;33.90;20.95;;;;;;;6.60;61.91;99675.75;4935596;28;109183;-74
2020/12/30 04:07:02;;;;;;;38.63;21.17;;;;;;;6.61;62.01;99674.84;4955501;28;125320;-75
2020/12/30 04:09:29;;;;;;;35.75;21.48;;;;;;;6.62;61.79;99667.78;4931308;28;124020;-75
2020/12/30 04:11:56;;;;;;;37.88;20.58;;;;;;;6.63;61.99;99670.34;4954429;28;109859;-74
2020/12/30 04:14:22;;;;;;;36.15;20.75;;;;;;;6.64;61.96;99668.56;4932976;28;110510;-74
2020/12/30 04:16:49;;;;;;;35.80;20.30;;;;;;;6.67;61.93;99675.44;4939077;28;122534;-74
2020/12/30 04:19:15;;;;;;;43.13;21.55;;;;;;;6.67;61.94;99673.69;4952409;28;123953;-74
2020/12/30 04:21:42;;;;;;;40.58;20.70;;;;;;;6.67;61.98;99668.44;4956001;28;110218;-74
2020/12/30 04:24:08;;;;;;;35.22;21.38;;;;;;;6.68;62.13;99671.91;4952178;28;109647;-75
2020/12/30 04:26:35;;;;;;;38.90;20.38;;;;;;;6.69;61.67;99669.22;4919706;28;122300;-75
2020/12/30 04:29:04;;;;;;;36.45;20.40;;;;;;;6.70;62.15;99680.56;4948603;28;124166;-75
2020/12/30 04:31:31;;;;;;;41.00;21.13;;;;;;;6.71;61.78;99677.88;4950529;28;108644;-74
2020/12/30 04:33:58;;;;;;;35.05;21.70;;;;;;;6.71;61.79;99672.63;4939685;28;110257;-75
2020/12/30 04:36:24;;;;;;;36.97;20.70;;;;;;;6.72;61.65;99674.28;4947284;28;123911;-75
2020/12/30 04:38:51;;;;;;;36.30;21.38;;;;;;;6.71;61.75;99677.88;4946450;28;125831;-74
2020/12/30 04:41:22;;;;;;;39.28;21.95;;;;;;;6.72;62.02;99678.72;4900522;28;108141;-74
2020/12/30 04:43:50;;;;;;;38.00;21.63;;;;;;;6.70;61.52;99681.41;4942024;28;109723;-75
2020/12/30 04:46:17;;;;;;;38.47;21.27;;;;;;;6.69;61.81;99679.72;4949385;28;124284;-75
2020/12/30 04:48:44;;;;;;;34.22;21.05;;;;;;;6.69;61.85;99684.16;4932131;28;124527;-74
2020/12/30 04:51:11;;;;;;;38.95;20.92;;;;;;;6.69;61.59;99679.72;4918064;28;108707;-74
2020/12/30 04:53:38;;;;;;;38.30;21.02;;;;;;;6.69;61.91;99685.00;4932672;28;109851;-75
2020/12/30 04:56:05;;;;;;;33.33;21.17;;;;;;;6.68;61.75;99691.16;4947192;28;124560;-74
2020/12/30 04:58:33;;;;;;;36.80;21.00;;;;;;;6.67;61.61;99692.09;4959838;28;121858;-75
2020/12/30 05:00:59;;;;;;;40.63;21.77;;;;;;;6.67;61.62;99692.09;4935047;28;109461;-75
2020/12/30 05:03:31;;;;;;;40.95;21.45;;;;;;;6.66;61.84;99695.66;4941901;28;110237;-74
2020/12/30 05:06:05;;;;;;;33.60;20.58;;;;;;;6.65;61.94;99704.47;4916588;28;121978;-75
2020/12/30 05:08:39;;;;;;;37.45;20.80;;;;;;;6.65;61.87;99703.59;4939765;28;121839;-75
2020/12/30 05:11:06;;;;;;;37.47;20.45;;;;;;;6.65;61.60;99703.59;4936458;28;110277;-74
2020/12/30 05:13:32;;;;;;;44.08;21.20;;;;;;;6.64;61.95;99708.03;4921815;28;108787;-75
2020/12/30 05:15:59;;;;;;;38.78;21.67;;;;;;;6.65;61.72;99711.50;4948034;28;124980;-74
2020/12/30 05:18:25;;;;;;;40.17;20.85;;;;;;;6.64;62.06;99702.75;4929592;28;124120;-75
2020/12/30 05:20:52;;;;;;;37.05;20.88;;;;;;;6.66;62.20;99708.81;4943660;28;109322;-74
2020/12/30 05:23:18;;;;;;;35.17;20.77;;;;;;;6.67;62.24;99713.16;4926320;28;109234;-75
2020/12/30 05:25:45;;;;;;;38.20;20.63;;;;;;;6.68;62.22;99714.84;4951324;28;123342;-74
2020/12/30 05:28:13;;;;;;;37.45;20.33;;;;;;;6.70;62.26;99717.41;4935368;28;122425;-74
2020/12/30 05:30:43;;;;;;;35.25;20.58;;;;;;;6.70;61.72;99718.25;4935562;28;108076;-75
2020/12/30 05:33:10;;;;;;;34.13;21.10;;;;;;;6.70;62.14;99723.50;4909292;28;109643;-75
2020/12/30 05:35:37;;;;;;;36.75;19.88;;;;;;;6.72;62.12;99729.56;4953767;28;123955;-74
2020/12/30 05:38:05;;;;;;;34.33;20.02;;;;;;;6.73;61.94;99723.38;4934642;28;123217;-75
2020/12/30 05:40:33;;;;;;;34.80;20.80;;;;;;;6.76;62.24;99727.63;4927937;28;108280;-75
2020/12/30 05:43:12;;;;;;;34.55;20.73;;;;;;;6.76;62.16;99739.03;4929651;28;109925;-75
2020/12/30 05:45:48;;;;;;;35.80;20.67;;;;;;;6.78;62.21;99737.19;4928549;28;124246;-75
2020/12/30 05:48:17;;;;;;;37.38;20.52;;;;;;;6.80;61.87;99735.31;4948988;28;123827;-75
2020/12/30 05:50:46;;;;;;;34.08;20.17;;;;;;;6.79;62.30;99738.88;4951286;28;109685;-74
2020/12/30 05:53:14;;;;;;;31.15;19.90;;;;;;;6.81;62.09;99742.28;4897345;28;109518;-75
2020/12/30 05:55:41;;;;;;;34.78;19.80;;;;;;;6.83;62.31;99745.69;4949668;28;123054;-74
2020/12/30 05:58:12;;;;;;;37.30;20.00;;;;;;;6.85;62.19;99737.72;4929381;28;124122;-74
2020/12/30 06:00:42;;;;;;;32.40;18.98;;;;;;;6.87;62.12;99745.56;4919236;28;109854;-74
2020/12/30 06:03:12;;;;;;;33.85;19.92;;;;;;;6.88;61.63;99742.00;4954491;28;109250;-75
2020/12/30 06:05:39;;;;;;;39.72;19.08;;;;;;;6.91;62.03;99741.84;4940131;28;123760;-75
2020/12/30 06:08:06;;;;;;;33.67;19.70;;;;;;;6.92;62.09;99738.31;4949617;28;124120;-74
2020/12/30 06:10:33;;;;;;;33.63;18.85;;;;;;;6.94;62.12;99739.09;4953181;28;109033;-75
2020/12/30 06:13:01;;;;;;;31.58;18.42;;;;;;;6.95;62.12;99743.41;4950529;28;109088;-75
2020/12/30 06:15:32;;;;;;;33.53;19.58;;;;;;;6.96;62.14;99737.22;4953293;28;123037;-75
2020/12/30 06:18:05;;;;;;;33.83;19.35;;;;;;;6.96;61.82;99740.69;4937201;28;122537;-74
2020/12/30 06:20:37;;;;;;;31.90;18.90;;;;;;;6.96;61.95;99751.22;4956994;28;109375;-75
2020/12/30 06:23:06;;;;;;;32.80;19.33;;;;;;;6.98;61.78;99761.69;4936472;28;109670;-75
2020/12/30 06:25:35;;;;;;;32.63;18.77;;;;;;;6.99;62.12;99758.16;4952928;28;123419;-75
2020/12/30 06:28:06;;;;;;;31.25;18.40;;;;;;;6.97;61.88;99760.84;4939672;28;124143;-74
2020/12/30 06:30:33;;;;;;;32.08;18.27;;;;;;;6.96;62.07;99758.28;4935652;28;108792;-74
2020/12/30 06:33:01;;;;;;;37.88;19.55;;;;;;;6.97;62.18;99762.63;4950696;28;109403;-75
2020/12/30 06:35:29;;;;;;;32.83;18.20;;;;;;;6.98;61.69;99761.69;4937173;28;123545;-75
2020/12/30 06:37:57;;;;;;;31.88;17.95;;;;;;;6.99;62.04;99766.03;4946768;28;123914;-74
2020/12/30 06:40:26;;;;;;;32.45;18.13;;;;;;;6.99;62.21;99766.88;4934490;28;112785;-75
2020/12/30 06:42:55;;;;;;;32.33;19.15;;;;;;;6.99;62.00;99763.41;4933884;28;116101;-75
2020/12/30 06:45:43;;;;;;;32.15;18.48;;;;;;;6.99;62.13;99771.31;4947345;28;124722;-74
2020/12/30 06:48:11;;;;;;;32.40;18.13;;;;;;;6.99;61.86;99776.56;4945613;28;123025;-75
2020/12/30 06:50:39;;;;;;;31.73;18.27;;;;;;;7.00;62.13;99780.91;4929596;28;115372;-75
2020/12/30 06:53:31;;;;;;;32.00;19.23;;;;;;;7.00;62.10;99788.78;4934192;28;113815;-75
2020/12/30 06:56:00;;;;;;;31.08;17.98;;;;;;;7.02;61.90;99792.19;4943125;28;125449;-75
2020/12/30 06:58:50;;;;;;;31.63;19.15;;;;;;;7.01;61.92;99790.50;4952138;28;123582;-77
2020/12/30 07:01:21;;;;;;;29.65;17.95;;;;;;;7.00;61.77;99794.91;4939813;28;114259;-76
2020/12/30 07:03:49;;;;;;;32.58;18.25;;;;;;;7.00;62.06;99801.97;4939846;28;113750;-76
2020/12/30 07:06:30;;;;;;;29.60;18.50;;;;;;;7.00;62.17;99807.22;4940250;28;124815;-77
2020/12/30 07:09:05;;;;;;;32.45;18.85;;;;;;;7.00;61.79;99809.84;4934649;28;123919;-77
2020/12/30 07:11:48;;;;;;;34.47;18.55;;;;;;;7.00;61.95;99812.50;4935302;28;113246;-77
2020/12/30 07:14:20;;;;;;;27.38;17.90;;;;;;;7.01;62.17;99822.09;4900534;28;113491;-77
2020/12/30 07:16:54;;;;;;;32.33;18.65;;;;;;;7.02;61.88;99818.53;4905291;28;122491;-76
2020/12/30 07:19:26;;;;;;;32.92;18.08;;;;;;;7.03;62.06;99820.25;4935941;28;124477;-77
2020/12/30 07:22:02;;;;;;;32.58;18.67;;;;;;;7.04;62.09;99821.94;4934026;28;113401;-77
2020/12/30 07:24:41;;;;;;;28.15;17.55;;;;;;;7.05;61.81;99823.66;4936175;28;116578;-76
2020/12/30 07:27:13;;;;;;;29.88;18.52;;;;;;;7.08;62.07;99828.75;4934235;28;123988;-77
2020/12/30 07:29:41;;;;;;;30.15;17.90;;;;;;;7.09;62.02;99830.50;4892600;28;123402;-76
2020/12/30 07:32:09;;;;;;;31.25;17.98;;;;;;;7.10;61.97;99832.22;4939777;28;114253;-77
2020/12/30 07:34:40;;;;;;;28.23;17.48;;;;;;;7.10;61.95;99834.84;4936914;28;113339;-76
2020/12/30 07:37:07;;;;;;;34.20;18.15;;;;;;;7.10;61.83;99831.34;4909202;28;122829;-74
2020/12/30 07:39:40;;;;;;;30.10;17.35;;;;;;;7.09;61.92;99835.75;4922312;28;122838;-74
2020/12/30 07:42:11;;;;;;;31.08;18.15;;;;;;;7.10;61.76;99842.75;4921399;28;114270;-74
2020/12/30 07:44:45;;;;;;;27.98;17.42;;;;;;;7.09;61.73;99843.66;4921996;28;116980;-75
2020/12/30 07:47:12;;;;;;;31.48;18.50;;;;;;;7.12;61.75;99848.78;4939275;28;124090;-74
2020/12/30 07:49:40;;;;;;;30.52;18.05;;;;;;;7.13;61.98;99853.09;4944449;28;124974;-74
2020/12/30 07:52:07;;;;;;;29.52;18.35;;;;;;;7.14;61.72;99860.09;4928039;28;114465;-74
2020/12/30 07:54:34;;;;;;;31.63;18.10;;;;;;;7.17;62.32;99865.19;4924388;28;113417;-74
2020/12/30 07:57:08;;;;;;;30.67;18.65;;;;;;;7.18;62.00;99861.66;4901065;28;122727;-74
2020/12/30 07:59:37;;;;;;;30.17;18.30;;;;;;;7.19;61.94;99879.16;4930612;28;121725;-75
2020/12/30 08:02:12;;;;;;;33.83;17.67;;;;;;;7.21;61.87;99872.06;4907722;28;113833;-76
2020/12/30 08:04:40;;;;;;;31.00;18.55;;;;;;;7.22;62.05;99879.00;4914029;28;114058;-74
2020/12/30 08:07:11;;;;;;;30.58;18.42;;;;;;;7.21;62.16;99882.59;4909800;28;124082;-75
2020/12/30 08:09:46;;;;;;;31.27;17.98;;;;;;;7.22;62.25;99884.28;4924751;28;123392;-75
2020/12/30 08:12:14;;;;;;;30.98;18.58;;;;;;;7.23;62.21;99890.41;4924602;28;113511;-75
2020/12/30 08:14:43;;;;;;;29.45;19.00;;;;;;;7.24;62.19;99880.75;4931215;28;113174;-75
2020/12/30 08:17:12;;;;;;;31.55;18.23;;;;;;;7.26;61.87;99898.16;4949990;28;124403;-74
2020/12/30 08:19:48;;;;;;;33.65;18.45;;;;;;;7.28;62.18;99893.69;4928815;28;123274;-74
2020/12/30 08:22:16;;;;;;;34.35;19.23;;;;;;;7.30;62.07;99901.50;4924402;28;113874;-75
2020/12/30 08:24:54;;;;;;;37.17;20.35;;;;;;;7.29;62.19;99903.28;4944117;28;114096;-75
2020/12/30 08:27:23;;;;;;;30.67;18.17;;;;;;;7.30;62.31;99902.34;4925969;28;123465;-75
2020/12/30 08:30:10;;;;;;;33.95;19.65;;;;;;;7.32;62.21;99904.91;4938187;28;123894;-75
2020/12/30 08:32:58;;;;;;;32.40;19.63;;;;;;;7.32;62.17;99904.91;4921372;28;114816;-75
2020/12/30 08:35:31;;;;;;;35.47;19.63;;;;;;;7.32;61.82;99911.03;4939553;28;114891;-75
2020/12/30 08:38:10;;;;;;;34.55;19.38;;;;;;;7.31;62.26;99919.00;4937212;28;124144;-74
2020/12/30 08:40:38;;;;;;;37.28;20.30;;;;;;;7.29;61.97;99911.19;4920943;28;123179;-74
2020/12/30 08:43:11;;;;;;;36.15;20.73;;;;;;;7.30;62.25;99920.78;4909980;28;113348;-75
2020/12/30 08:45:50;;;;;;;37.42;20.15;;;;;;;7.29;62.34;99920.84;4938204;28;113735;-75
2020/12/30 08:48:20;;;;;;;35.05;19.52;;;;;;;7.29;62.06;99920.84;4937585;28;122878;-75
2020/12/30 08:50:50;;;;;;;32.00;18.95;;;;;;;7.29;62.20;99921.72;4940329;28;124581;-75
2020/12/30 08:53:32;;;;;;;36.53;20.10;;;;;;;7.29;62.10;99926.13;4931713;28;112105;-76
2020/12/30 08:56:15;;;;;;;34.67;19.95;;;;;;;7.31;62.01;99919.00;4924851;28;112491;-76
2020/12/30 08:58:50;;;;;;;33.25;19.55;;;;;;;7.32;62.43;99926.00;4894179;28;123818;-67
2020/12/30 09:01:25;;;;;;;36.00;20.02;;;;;;;7.34;62.51;99929.41;4894526;28;124000;-68
2020/12/30 09:03:52;;;;;;;35.73;20.33;;;;;;;7.38;62.45;99930.97;4900101;28;114160;-66
2020/12/30 09:06:27;;;;;;;36.80;20.27;;;;;;;7.42;62.54;99927.25;4907252;28;113387;-67
2020/12/30 09:08:55;;;;;;;32.07;19.23;;;;;;;7.45;62.76;99940.31;4888075;28;123991;-67
2020/12/30 09:11:21;;;;;;;34.88;20.58;;;;;;;7.49;62.33;99939.22;4895308;28;124798;-67
2020/12/30 09:13:48;;;;;;;33.65;19.23;;;;;;;7.50;62.57;99946.22;4896361;28;114145;-66
2020/12/30 09:16:15;;;;;;;34.28;19.27;;;;;;;7.51;62.38;99953.19;4878064;28;112806;-66
2020/12/30 09:18:48;;;;;;;34.90;19.55;;;;;;;7.52;62.43;99952.25;4895018;28;123333;-66
2020/12/30 09:21:23;;;;;;;33.53;19.48;;;;;;;7.54;62.46;99957.47;4896340;28;123682;-66
2020/12/30 09:23:49;;;;;;;31.70;18.77;;;;;;;7.56;62.54;99956.47;4898595;28;115753;-67
2020/12/30 09:26:29;;;;;;;30.70;18.25;;;;;;;7.57;62.27;99958.19;4905805;28;115427;-66
2020/12/30 09:28:56;;;;;;;33.85;19.33;;;;;;;7.58;62.46;99954.59;4892298;28;123784;-66
2020/12/30 09:31:23;;;;;;;32.90;19.08;;;;;;;7.59;62.59;99961.59;4895426;28;124355;-66
2020/12/30 09:33:49;;;;;;;30.85;19.25;;;;;;;7.63;62.64;99961.44;4900841;28;114042;-66
2020/12/30 09:36:16;;;;;;;33.15;19.08;;;;;;;7.66;62.78;99966.56;4911546;28;113826;-66
2020/12/30 09:38:43;;;;;;;34.90;20.08;;;;;;;7.70;62.85;99968.13;4895223;28;124111;-66
2020/12/30 09:41:14;;;;;;;34.10;18.92;;;;;;;7.71;62.64;99964.59;4904254;28;123711;-66
2020/12/30 09:43:46;;;;;;;31.80;18.63;;;;;;;7.73;62.82;99968.00;4903170;28;113538;-67
2020/12/30 09:46:21;;;;;;;32.40;18.60;;;;;;;7.74;62.83;99967.94;4885861;28;113392;-67
2020/12/30 09:48:48;;;;;;;30.63;18.65;;;;;;;7.78;62.58;99971.28;4903176;28;124065;-68
2020/12/30 09:51:17;;;;;;;33.17;18.52;;;;;;;7.81;62.74;99965.84;4902604;28;124128;-67
2020/12/30 09:53:44;;;;;;;29.17;17.73;;;;;;;7.83;62.69;99971.88;4886946;28;114630;-67
2020/12/30 09:56:14;;;;;;;31.73;18.25;;;;;;;7.85;62.59;99971.81;4912763;28;112862;-67
2020/12/30 09:58:41;;;;;;;31.45;18.35;;;;;;;7.87;62.89;99972.59;4902194;28;124035;-66
2020/12/30 10:01:07;;;;;;;30.52;18.20;;;;;;;7.88;62.81;99969.91;4905292;28;123812;-66
2020/12/30 10:03:34;;;;;;;30.38;18.48;;;;;;;7.91;62.87;99977.66;4902304;28;114359;-67
2020/12/30 10:06:01;;;;;;;29.73;18.88;;;;;;;7.92;62.82;99973.25;4911909;28;114208;-66
2020/12/30 10:08:28;;;;;;;31.27;19.17;;;;;;;7.94;62.67;99981.94;4910623;28;124256;-67
2020/12/30 10:10:54;;;;;;;33.72;19.55;;;;;;;7.97;62.56;99980.00;4913029;28;124425;-68
2020/12/30 10:13:21;;;;;;;33.65;18.45;;;;;;;7.99;63.01;99980.78;4894940;28;114230;-66
2020/12/30 10:15:47;;;;;;;32.45;19.35;;;;;;;8.02;62.88;99986.84;4913078;28;115002;-67
2020/12/30 10:18:14;;;;;;;31.63;18.52;;;;;;;8.03;62.82;99991.19;4893406;28;122003;-66
2020/12/30 10:20:40;;;;;;;33.30;19.25;;;;;;;8.07;62.71;99977.78;4910438;28;124181;-67
2020/12/30 10:23:09;;;;;;;28.52;18.30;;;;;;;8.10;62.75;99987.31;4911572;28;114277;-67
2020/12/30 10:25:35;;;;;;;32.08;18.20;;;;;;;8.14;63.13;99988.88;4910676;28;114269;-67
2020/12/30 10:28:02;;;;;;;30.27;18.45;;;;;;;8.16;62.77;99987.03;4910701;28;124585;-67
2020/12/30 10:30:29;;;;;;;32.03;18.30;;;;;;;8.19;63.11;99994.78;4912372;28;123820;-67
2020/12/30 10:33:12;;;;;;;29.35;18.08;;;;;;;8.21;62.93;99989.44;4900937;28;114435;-68
2020/12/30 10:35:38;;;;;;;33.33;18.42;;;;;;;8.25;63.03;99991.84;4894377;28;114810;-68
2020/12/30 10:38:05;;;;;;;34.50;18.20;;;;;;;8.26;62.92;100004.09;4906133;28;124748;-68
2020/12/30 10:40:31;;;;;;;29.85;18.58;;;;;;;8.26;62.59;100004.09;4887649;28;123611;-66
2020/12/30 10:42:58;;;;;;;30.45;18.65;;;;;;;8.28;62.88;99996.97;4911541;28;114567;-67
2020/12/30 10:45:24;;;;;;;30.95;18.73;;;;;;;8.29;62.58;99998.69;4912988;28;113801;-68
2020/12/30 10:47:51;;;;;;;34.30;18.63;;;;;;;8.30;62.72;99997.75;4915332;28;123264;-67
2020/12/30 10:50:18;;;;;;;30.25;19.08;;;;;;;8.31;62.71;99991.53;4915565;28;124077;-67
2020/12/30 10:52:44;;;;;;;33.67;19.08;;;;;;;8.34;62.74;100001.97;4898160;28;114458;-67
2020/12/30 10:55:11;;;;;;;28.60;19.33;;;;;;;8.35;63.04;99998.38;4897415;28;114201;-68
2020/12/30 10:57:37;;;;;;;29.92;18.30;;;;;;;8.37;63.00;99996.50;4911128;28;123207;-67
2020/12/30 11:00:04;;;;;;;28.25;17.70;;;;;;;8.39;62.77;99999.06;4908272;28;124014;-67
2020/12/30 11:02:31;;;;;;;26.73;17.75;;;;;;;8.43;62.62;100005.09;4911254;28;115231;-68
2020/12/30 11:05:00;;;;;;;31.13;17.75;;;;;;;8.43;62.77;100005.94;4910837;28;115685;-67
2020/12/30 11:07:26;;;;;;;30.40;18.17;;;;;;;8.45;62.87;100000.59;4914711;28;123853;-67
2020/12/30 11:09:53;;;;;;;28.10;17.88;;;;;;;8.48;63.04;99997.81;4895987;28;122839;-67
2020/12/30 11:12:24;;;;;;;27.60;18.73;;;;;;;8.50;63.00;99995.94;4908490;28;114266;-67
2020/12/30 11:14:51;;;;;;;30.17;19.05;;;;;;;8.54;62.70;99992.22;4896818;28;113704;-67
2020/12/30 11:17:17;;;;;;;30.75;18.08;;;;;;;8.55;62.78;99991.25;4907441;28;123994;-67
2020/12/30 11:19:44;;;;;;;28.30;18.83;;;;;;;8.57;62.56;99992.06;4897772;28;123226;-67
2020/12/30 11:22:11;;;;;;;27.38;18.00;;;;;;;8.60;63.04;99993.69;4895392;28;113598;-67
2020/12/30 11:24:38;;;;;;;27.15;18.17;;;;;;;8.62;63.00;100005.88;4911044;28;113802;-68